Terminal Aerodrome Forecast
Issued by NWS

Current Version | Previous Version | Text Only | Print | Product List | Glossary On
Versions: 1 2 3 4 5 6 7 8 9 10 11 12 13 14 15
000
FTAK31 PAJN 261100
TAFASI
TAF
PASI 261139Z 2612/2712 32008KT P6SM VCFG BKN008
     FM261400 33006KT P6SM VCFG OVC006
     FM261900 25007KT P6SM FEW020 OVC080
     FM270400 30008KT P6SM OVC070
     FM270900 30007KT P6SM VCSH OVC050=

USA.gov is the U.S. government's official web portal to all federal, state and local government web resources and services.